Time;durP1;ratioP1;P1;durP2;ratioP2;P2;SDS_P1;SDS_P2;PMS_P1;PMS_P2;Temp;Humidity;BMP_temperature;BMP_pressure;BME280_temperature;BME280_humidity;BME280_pressure;Samples;Min_cycle;Max_cycle;Signal;HPM_P1;HPM_P2
2022/01/15 00:00:05;;;;;;;55.80;23.30;;;;;;;-0.05;100.00;100086.41;4843247;29;20167;-69
2022/01/15 00:02:31;;;;;;;52.07;23.47;;;;;;;-0.04;100.00;100085.47;4843149;29;20044;-69
2022/01/15 00:04:56;;;;;;;50.83;23.27;;;;;;;-0.06;100.00;100082.09;4843062;29;20292;-69
2022/01/15 00:07:22;;;;;;;49.53;23.07;;;;;;;0.00;100.00;100086.94;4843230;29;20038;-69
2022/01/15 00:09:50;;;;;;;48.37;23.67;;;;;;;0.06;100.00;100089.13;4842976;29;20112;-68
2022/01/15 00:12:16;;;;;;;47.58;22.67;;;;;;;-0.03;100.00;100092.41;4841860;29;20062;-70
2022/01/15 00:14:42;;;;;;;50.77;22.37;;;;;;;-0.04;100.00;100094.19;4842960;29;20125;-68
2022/01/15 00:17:43;;;;;;;51.97;23.33;;;;;;;-0.08;100.00;100083.97;4842883;29;20404;-69
2022/01/15 00:20:07;;;;;;;48.53;22.58;;;;;;;-0.01;100.00;100083.47;4842753;29;20764;-69
2022/01/15 00:22:32;;;;;;;48.20;22.40;;;;;;;-0.03;100.00;100077.47;4843089;29;20102;-70
2022/01/15 00:24:58;;;;;;;53.20;22.33;;;;;;;0.04;100.00;100071.78;4842757;29;20376;-68
2022/01/15 00:27:24;;;;;;;47.43;22.20;;;;;;;0.09;100.00;100064.44;4842673;29;20446;-69
2022/01/15 00:29:49;;;;;;;50.23;22.90;;;;;;;0.10;100.00;100068.75;4842572;29;20755;-68
2022/01/15 00:32:15;;;;;;;45.00;22.33;;;;;;;0.11;100.00;100073.91;4842529;29;20065;-68
2022/01/15 00:34:40;;;;;;;51.10;22.07;;;;;;;0.16;100.00;100069.13;4842461;29;20453;-68
2022/01/15 00:37:06;;;;;;;46.00;21.63;;;;;;;0.29;100.00;100072.59;4842428;29;20030;-69
2022/01/15 00:39:32;;;;;;;46.87;22.37;;;;;;;0.19;100.00;100074.19;4842469;29;20109;-68
2022/01/15 00:41:58;;;;;;;48.10;22.07;;;;;;;0.17;100.00;100077.88;4842351;29;20037;-69
2022/01/15 00:44:23;;;;;;;46.87;22.33;;;;;;;0.18;100.00;100075.13;4842377;29;20494;-69
2022/01/15 00:46:49;;;;;;;45.83;20.67;;;;;;;0.14;100.00;100076.28;4842192;29;20029;-68
2022/01/15 00:49:15;;;;;;;45.55;20.85;;;;;;;-0.01;100.00;100083.47;4841195;29;20030;-69
2022/01/15 00:51:41;;;;;;;46.90;21.67;;;;;;;0.03;100.00;100086.72;4842191;29;20030;-69
2022/01/15 00:54:07;;;;;;;44.85;21.23;;;;;;;0.01;100.00;100078.09;4842292;29;20033;-69
2022/01/15 00:56:32;;;;;;;50.97;22.80;;;;;;;-0.05;100.00;100084.63;4842215;29;20026;-69
2022/01/15 00:58:58;;;;;;;50.33;22.43;;;;;;;-0.10;100.00;100084.09;4842206;29;20112;-69
2022/01/15 01:01:24;;;;;;;45.83;21.43;;;;;;;-0.18;100.00;100082.94;4842044;29;20045;-69
2022/01/15 01:03:50;;;;;;;52.73;22.77;;;;;;;-0.17;100.00;100076.75;4842071;29;20033;-69
2022/01/15 01:06:16;;;;;;;53.05;23.35;;;;;;;-0.16;100.00;100078.44;4841839;29;20528;-68
2022/01/15 01:08:41;;;;;;;49.73;22.20;;;;;;;-0.16;100.00;100075.81;4841946;29;20034;-69
2022/01/15 01:11:17;;;;;;;50.13;22.27;;;;;;;-0.20;100.00;100079.56;4841929;29;20083;-68
2022/01/15 01:24:33;;;;;;;51.13;21.95;;;;;;;-0.12;100.00;100078.13;4841782;29;20034;-69
2022/01/15 01:27:18;;;;;;;49.08;21.50;;;;;;;-0.11;100.00;100076.31;4841706;29;20833;-68
2022/01/15 01:35:42;;;;;;;45.75;21.58;;;;;;;0.02;100.00;100065.78;4821042;29;20111;-69
2022/01/15 01:38:34;;;;;;;52.83;22.90;;;;;;;0.06;100.00;100065.47;4821050;29;20084;-68
2022/01/15 01:40:58;;;;;;;46.60;21.15;;;;;;;0.08;100.00;100060.13;4820634;29;20086;-68
2022/01/15 01:46:38;;;;;;;47.53;22.63;;;;;;;0.15;100.00;100058.72;4820682;29;20114;-69
2022/01/15 01:48:40;;;;;;;45.67;21.00;;;;;;;0.07;100.00;100054.03;4815856;29;20035;-69
2022/01/15 01:51:07;;;;;;;44.57;21.57;;;;;;;0.13;100.00;100047.47;4805604;29;20081;-69
2022/01/15 01:53:35;;;;;;;46.53;21.42;;;;;;;0.07;100.00;100048.75;4820857;29;20285;-69
2022/01/15 01:56:03;;;;;;;50.53;22.33;;;;;;;0.13;100.00;100043.06;4820649;29;20409;-69
2022/01/15 01:58:28;;;;;;;48.97;22.27;;;;;;;0.23;100.00;100038.03;4805372;29;20278;-69
2022/01/15 02:00:54;;;;;;;47.07;21.73;;;;;;;0.27;100.00;100035.03;4820593;29;20680;-68
2022/01/15 02:03:20;;;;;;;44.00;21.53;;;;;;;0.23;100.00;100025.69;4820789;29;20110;-69
2022/01/15 02:05:45;;;;;;;48.27;21.63;;;;;;;0.18;100.00;100026.97;4820534;29;20050;-69
2022/01/15 02:08:11;;;;;;;50.33;21.53;;;;;;;0.23;100.00;100025.69;4820631;29;20112;-69
2022/01/15 02:10:37;;;;;;;46.20;21.23;;;;;;;0.31;100.00;100015.50;4827480;29;20048;-69
2022/01/15 02:13:03;;;;;;;43.90;20.10;;;;;;;0.27;100.00;100008.75;4840900;29;20266;-69
2022/01/15 02:15:29;;;;;;;45.70;21.00;;;;;;;0.34;100.00;100003.91;4841017;29;20030;-68
2022/01/15 02:17:54;;;;;;;45.97;20.90;;;;;;;0.32;100.00;100011.91;4840857;29;20257;-69
2022/01/15 02:25:44;;;;;;;44.30;21.87;;;;;;;0.35;100.00;100006.41;4840692;29;20331;-69
2022/01/15 02:28:10;;;;;;;44.07;20.13;;;;;;;0.33;100.00;100012.75;4840783;29;20266;-69
2022/01/15 02:30:36;;;;;;;45.43;20.77;;;;;;;0.33;100.00;100018.00;4840798;29;20040;-68
2022/01/15 02:33:02;;;;;;;45.30;21.03;;;;;;;0.35;100.00;100013.47;4840978;29;20273;-69
2022/01/15 02:35:30;;;;;;;45.43;21.57;;;;;;;0.43;100.00;100011.13;4840142;29;20030;-69
2022/01/15 02:38:03;;;;;;;44.37;21.33;;;;;;;0.53;100.00;100009.50;4840655;29;20030;-69
2022/01/15 02:40:32;;;;;;;48.72;21.85;;;;;;;0.43;100.00;100005.88;4840646;29;20275;-68
2022/01/15 02:43:09;;;;;;;45.30;21.70;;;;;;;0.36;100.00;99997.56;4840653;29;20515;-68
2022/01/15 02:45:36;;;;;;;49.67;22.30;;;;;;;0.52;100.00;99999.09;4840646;29;20626;-68
2022/01/15 02:48:12;;;;;;;45.40;21.50;;;;;;;0.63;100.00;99997.38;4840509;29;20281;-68
2022/01/15 02:50:38;;;;;;;48.33;21.57;;;;;;;0.65;100.00;99989.38;4840708;29;20484;-69
2022/01/15 02:53:04;;;;;;;40.63;20.10;;;;;;;0.46;100.00;100003.03;4840641;29;20284;-69
2022/01/15 02:55:30;;;;;;;44.30;20.83;;;;;;;0.34;100.00;100001.28;4840585;29;20273;-70
2022/01/15 02:57:56;;;;;;;47.73;21.90;;;;;;;0.40;100.00;100003.47;4839204;29;20639;-68
2022/01/15 03:00:23;;;;;;;44.73;20.90;;;;;;;0.42;100.00;99995.47;4840451;29;20033;-69
2022/01/15 03:02:49;;;;;;;45.77;22.23;;;;;;;0.52;100.00;99988.59;4840473;29;20273;-68
2022/01/15 03:05:14;;;;;;;44.67;20.23;;;;;;;0.64;100.00;99992.94;4839376;29;20771;-68
2022/01/15 03:07:40;;;;;;;47.97;21.70;;;;;;;0.69;100.00;99991.63;4839204;29;20071;-68
2022/01/15 03:10:08;;;;;;;47.10;21.60;;;;;;;0.71;100.00;99988.91;4840478;29;20112;-68
2022/01/15 03:12:35;;;;;;;43.63;20.47;;;;;;;0.74;100.00;99993.94;4840579;29;20041;-68
2022/01/15 03:15:03;;;;;;;44.47;22.17;;;;;;;0.69;100.00;99990.84;4840335;29;20747;-68
2022/01/15 03:17:28;;;;;;;43.67;20.87;;;;;;;0.72;100.00;99988.78;4840208;29;20334;-68
2022/01/15 03:19:54;;;;;;;44.83;20.57;;;;;;;0.77;100.00;99988.47;4840049;29;20297;-69
2022/01/15 03:22:21;;;;;;;40.23;20.77;;;;;;;0.73;100.00;99979.94;4840235;29;20065;-69
2022/01/15 03:24:47;;;;;;;44.27;20.77;;;;;;;0.73;100.00;99987.84;4840069;29;20030;-68
2022/01/15 03:27:13;;;;;;;48.23;21.90;;;;;;;0.58;100.00;99982.88;4839821;29;20273;-68
2022/01/15 03:29:38;;;;;;;44.47;21.00;;;;;;;0.65;100.00;99986.75;4839077;29;20280;-68
2022/01/15 03:32:05;;;;;;;42.73;21.20;;;;;;;0.68;100.00;99983.88;4839062;29;20508;-69
2022/01/15 03:34:31;;;;;;;42.83;21.13;;;;;;;0.82;100.00;99982.84;4840214;29;20022;-68
2022/01/15 03:36:57;;;;;;;45.80;21.37;;;;;;;0.84;100.00;99983.56;4839941;29;20355;-69
2022/01/15 03:39:22;;;;;;;45.50;21.40;;;;;;;0.85;100.00;99983.47;4840161;29;20048;-69
2022/01/15 03:41:48;;;;;;;42.30;20.37;;;;;;;0.87;100.00;99981.56;4840021;29;20038;-70
2022/01/15 03:44:13;;;;;;;40.17;20.30;;;;;;;0.68;100.00;99979.47;4840032;29;20022;-69
2022/01/15 03:46:39;;;;;;;43.57;21.07;;;;;;;0.66;100.00;99976.09;4840860;29;20034;-69
2022/01/15 03:49:04;;;;;;;38.60;18.90;;;;;;;0.82;100.00;99977.56;4843301;29;20042;-69
2022/01/15 03:51:30;;;;;;;44.67;20.73;;;;;;;0.91;100.00;99976.91;4843406;29;20092;-69
2022/01/15 03:53:55;;;;;;;42.87;20.70;;;;;;;0.96;100.00;99977.41;4843218;29;20057;-70
2022/01/15 03:56:21;;;;;;;45.93;20.97;;;;;;;0.94;100.00;99981.94;4843211;29;20404;-69
2022/01/15 03:58:46;;;;;;;47.03;20.00;;;;;;;0.96;100.00;99969.50;4843240;29;20087;-69
2022/01/15 04:01:12;;;;;;;46.83;22.40;;;;;;;0.97;100.00;99979.91;4841979;29;20451;-68
2022/01/15 04:03:38;;;;;;;46.80;22.17;;;;;;;1.04;100.00;99975.03;4842045;29;20488;-68
2022/01/15 04:06:04;;;;;;;43.37;19.67;;;;;;;0.85;100.00;99972.09;4842959;29;20496;-70
2022/01/15 04:08:29;;;;;;;43.17;20.83;;;;;;;0.77;100.00;99971.84;4843055;29;20277;-69
2022/01/15 04:10:55;;;;;;;44.53;20.07;;;;;;;0.91;100.00;99974.28;4843196;29;20068;-69
2022/01/15 04:13:21;;;;;;;44.03;20.80;;;;;;;0.93;100.00;99969.72;4842856;29;20065;-69
2022/01/15 04:15:51;;;;;;;38.30;18.80;;;;;;;0.98;100.00;99967.59;4842997;29;20289;-69
2022/01/15 04:18:18;;;;;;;45.43;20.83;;;;;;;0.99;100.00;99964.84;4843051;29;20046;-70
2022/01/15 04:20:43;;;;;;;42.40;20.03;;;;;;;0.84;100.00;99955.47;4843006;29;20269;-68
2022/01/15 04:23:09;;;;;;;41.30;19.77;;;;;;;0.93;100.00;99962.66;4842798;29;20277;-69
2022/01/15 04:25:34;;;;;;;46.73;21.40;;;;;;;1.00;100.00;99968.31;4841716;29;20037;-69
2022/01/15 04:28:02;;;;;;;41.77;21.30;;;;;;;1.00;100.00;99970.97;4842837;29;20093;-68
2022/01/15 04:30:28;;;;;;;44.23;21.53;;;;;;;1.11;100.00;99971.00;4843063;29;20495;-69
2022/01/15 04:32:55;;;;;;;41.00;19.57;;;;;;;1.13;100.00;99963.81;4842622;29;20356;-69
2022/01/15 04:35:20;;;;;;;41.27;19.97;;;;;;;1.14;100.00;99978.66;4842756;29;20453;-69
2022/01/15 04:37:51;;;;;;;41.70;20.23;;;;;;;0.96;100.00;99969.50;4842598;29;20273;-69
2022/01/15 04:40:17;;;;;;;39.03;19.70;;;;;;;0.99;100.00;99966.66;4842615;29;20112;-69
2022/01/15 04:42:43;;;;;;;42.20;20.30;;;;;;;1.07;100.00;99969.53;4842456;29;20410;-70
2022/01/15 04:45:09;;;;;;;43.30;21.13;;;;;;;1.11;100.00;99963.09;4842334;29;20504;-69
2022/01/15 04:47:36;;;;;;;40.93;21.07;;;;;;;1.00;100.00;99968.31;4842365;29;20036;-68
2022/01/15 04:50:04;;;;;;;43.03;20.53;;;;;;;0.98;100.00;99968.44;4842359;29;20763;-69
2022/01/15 04:52:33;;;;;;;42.30;20.10;;;;;;;1.04;100.00;99972.38;4842283;29;20871;-69
2022/01/15 04:54:59;;;;;;;43.90;21.33;;;;;;;0.86;100.00;99973.78;4842437;29;20257;-69
2022/01/15 04:57:24;;;;;;;41.40;20.13;;;;;;;0.86;100.00;99971.16;4842166;29;20269;-70
2022/01/15 04:59:50;;;;;;;45.10;20.43;;;;;;;0.87;100.00;99975.47;4841484;29;20044;-69
2022/01/15 05:02:15;;;;;;;38.57;19.73;;;;;;;0.97;100.00;99973.81;4842159;29;20058;-69
2022/01/15 05:04:41;;;;;;;41.40;19.47;;;;;;;0.94;100.00;99980.13;4842034;29;20041;-69
2022/01/15 05:07:07;;;;;;;41.50;20.30;;;;;;;0.95;100.00;99973.94;4842200;29;20041;-68
2022/01/15 05:09:32;;;;;;;42.43;19.63;;;;;;;1.02;100.00;99984.84;4842047;29;20030;-69
2022/01/15 05:12:10;;;;;;;43.63;19.83;;;;;;;1.06;100.00;99981.00;4841871;29;20814;-69
2022/01/15 05:14:36;;;;;;;41.23;20.67;;;;;;;0.91;100.00;99983.03;4841888;29;20484;-69
2022/01/15 05:17:02;;;;;;;42.40;21.80;;;;;;;1.04;100.00;99982.91;4841729;29;20277;-69
2022/01/15 05:19:28;;;;;;;44.83;20.60;;;;;;;1.01;100.00;99984.00;4840517;29;20384;-69
2022/01/15 05:21:58;;;;;;;44.67;20.57;;;;;;;0.78;100.00;99984.03;4841707;29;20810;-69
2022/01/15 05:24:29;;;;;;;38.33;20.10;;;;;;;0.90;100.00;99988.41;4841689;29;20277;-69
2022/01/15 05:26:55;;;;;;;44.07;20.97;;;;;;;0.98;100.00;99988.66;4841577;29;20273;-69
2022/01/15 05:29:21;;;;;;;41.30;19.77;;;;;;;0.89;100.00;99978.81;4841694;29;20272;-69
2022/01/15 05:31:46;;;;;;;43.00;20.70;;;;;;;0.93;100.00;99983.72;4840464;29;20281;-69
2022/01/15 05:34:11;;;;;;;42.67;20.87;;;;;;;0.91;100.00;99984.81;4841534;29;20038;-69
2022/01/15 05:36:39;;;;;;;42.87;20.80;;;;;;;0.98;100.00;99973.69;4841468;29;20026;-69
2022/01/15 05:39:06;;;;;;;44.37;21.20;;;;;;;1.03;100.00;99983.91;4841607;29;20101;-69
2022/01/15 05:41:33;;;;;;;42.13;21.70;;;;;;;1.01;100.00;99981.38;4841683;29;20286;-69
2022/01/15 05:44:01;;;;;;;49.27;21.77;;;;;;;0.95;100.00;99975.72;4841317;29;20372;-69
2022/01/15 05:46:33;;;;;;;44.30;20.87;;;;;;;1.07;100.00;99980.06;4841288;29;20277;-69
2022/01/15 05:49:00;;;;;;;42.60;21.37;;;;;;;1.11;100.00;99981.53;4841459;29;20628;-70
2022/01/15 05:51:29;;;;;;;43.03;21.80;;;;;;;1.03;100.00;99983.91;4841447;29;20269;-70
2022/01/15 05:53:56;;;;;;;43.83;22.10;;;;;;;1.04;100.00;99989.00;4841498;29;20330;-69
2022/01/15 05:56:22;;;;;;;43.43;21.33;;;;;;;1.06;100.00;99989.75;4841241;29;20747;-69
2022/01/15 05:58:48;;;;;;;46.23;22.17;;;;;;;1.00;100.00;99992.84;4841505;29;20274;-69
2022/01/15 06:01:13;;;;;;;42.93;21.63;;;;;;;1.02;100.00;99985.69;4841226;29;20280;-69
2022/01/15 06:03:39;;;;;;;41.13;21.23;;;;;;;0.94;100.00;99988.03;4841108;29;20030;-69
2022/01/15 06:06:05;;;;;;;42.60;21.53;;;;;;;0.83;100.00;99984.53;4840944;29;20041;-69
2022/01/15 06:08:30;;;;;;;41.67;21.30;;;;;;;0.87;100.00;99983.34;4841064;29;20037;-69
2022/01/15 06:10:56;;;;;;;43.67;22.20;;;;;;;0.89;100.00;99987.56;4840078;29;20038;-69
2022/01/15 06:13:21;;;;;;;48.40;23.37;;;;;;;0.99;100.00;99993.81;4840986;29;20062;-69
2022/01/15 06:15:46;;;;;;;43.80;21.83;;;;;;;1.05;100.00;99990.69;4839866;29;20026;-69
2022/01/15 06:18:12;;;;;;;47.27;22.37;;;;;;;1.10;100.00;99982.47;4840573;29;20077;-69
2022/01/15 06:20:37;;;;;;;45.83;22.10;;;;;;;1.03;100.00;99976.00;4840849;29;20030;-69
2022/01/15 06:23:03;;;;;;;45.27;22.10;;;;;;;0.98;100.00;99983.38;4839558;29;20055;-69
2022/01/15 06:25:28;;;;;;;54.40;25.90;;;;;;;1.03;100.00;99983.91;4840659;29;20033;-69
2022/01/15 06:27:54;;;;;;;45.80;22.07;;;;;;;1.03;100.00;99995.25;4840582;29;20036;-69
2022/01/15 06:30:19;;;;;;;48.53;22.53;;;;;;;0.95;100.00;99987.09;4840734;29;20109;-69
2022/01/15 06:32:45;;;;;;;42.27;21.60;;;;;;;0.86;100.00;99992.19;4840621;29;20034;-69
2022/01/15 06:35:12;;;;;;;47.20;21.53;;;;;;;0.92;100.00;99986.50;4840576;29;20388;-69
2022/01/15 06:37:39;;;;;;;48.90;23.30;;;;;;;0.98;100.00;99980.75;4840528;29;20117;-69
2022/01/15 06:40:06;;;;;;;48.20;23.57;;;;;;;0.94;100.00;99981.94;4840631;29;20426;-69
2022/01/15 06:42:31;;;;;;;52.37;23.73;;;;;;;0.95;100.00;99986.25;4840877;29;20689;-69
2022/01/15 06:44:57;;;;;;;50.20;25.27;;;;;;;0.92;100.00;99986.50;4840491;29;20317;-69
2022/01/15 06:47:23;;;;;;;50.87;23.93;;;;;;;0.91;100.00;99985.66;4840467;29;20098;-70
2022/01/15 06:49:48;;;;;;;52.93;24.47;;;;;;;1.01;100.00;99977.91;4840380;29;20045;-69
2022/01/15 06:52:14;;;;;;;57.90;26.00;;;;;;;1.04;100.00;99988.19;4840458;29;20049;-69
2022/01/15 06:54:40;;;;;;;55.77;26.10;;;;;;;1.04;100.00;99986.38;4840412;29;20090;-69
2022/01/15 06:57:05;;;;;;;58.23;25.63;;;;;;;1.09;100.00;99986.06;4840373;29;20352;-68
2022/01/15 06:59:31;;;;;;;65.23;27.83;;;;;;;1.14;100.00;99991.81;4840525;29;20117;-70
2022/01/15 07:01:57;;;;;;;51.97;24.50;;;;;;;1.13;100.00;99986.66;4840468;29;20114;-68
2022/01/15 07:04:22;;;;;;;53.90;24.90;;;;;;;1.18;100.00;99981.88;4840388;29;20535;-67
2022/01/15 07:06:48;;;;;;;57.47;25.73;;;;;;;1.15;100.00;99985.59;4840633;29;20042;-67
2022/01/15 07:09:14;;;;;;;52.40;24.40;;;;;;;1.15;100.00;99990.88;4840407;29;20033;-68
2022/01/15 07:11:39;;;;;;;48.37;23.50;;;;;;;1.24;100.00;99986.69;4840758;29;20383;-69
2022/01/15 07:14:05;;;;;;;50.37;24.70;;;;;;;1.28;100.00;99996.84;4840519;29;20284;-68
2022/01/15 07:16:31;;;;;;;46.90;23.03;;;;;;;1.27;100.00;99986.47;4840588;29;20102;-68
2022/01/15 07:18:57;;;;;;;47.03;22.47;;;;;;;1.11;100.00;99992.03;4838869;29;20093;-66
2022/01/15 07:21:22;;;;;;;47.57;22.40;;;;;;;1.20;100.00;99991.34;4840936;29;20038;-65
2022/01/15 07:23:48;;;;;;;48.73;22.73;;;;;;;1.16;100.00;99994.31;4842911;29;20379;-67
2022/01/15 07:26:13;;;;;;;48.97;22.73;;;;;;;1.14;100.00;99989.19;4843912;29;20026;-67
2022/01/15 07:28:39;;;;;;;52.50;24.27;;;;;;;1.12;100.00;99991.09;4843912;29;20492;-67
2022/01/15 07:31:04;;;;;;;51.43;23.87;;;;;;;1.01;100.00;99991.91;4842518;29;20034;-67
2022/01/15 07:33:30;;;;;;;46.37;23.50;;;;;;;1.13;100.00;99991.94;4843692;29;20037;-66
2022/01/15 07:35:55;;;;;;;46.40;22.30;;;;;;;1.03;100.00;99991.78;4843498;29;20028;-66
2022/01/15 07:38:22;;;;;;;52.60;23.57;;;;;;;1.16;100.00;99995.16;4843581;29;20034;-66
2022/01/15 07:40:48;;;;;;;46.80;22.50;;;;;;;1.02;100.00;99992.75;4843553;29;20026;-66
2022/01/15 07:43:14;;;;;;;50.57;23.20;;;;;;;1.06;100.00;99994.16;4842300;29;20269;-69
2022/01/15 07:45:40;;;;;;;49.03;23.50;;;;;;;1.18;100.00;99998.50;4843408;29;20856;-70
2022/01/15 07:48:05;;;;;;;51.03;23.87;;;;;;;1.12;100.00;99988.47;4843258;29;20274;-69
2022/01/15 07:50:31;;;;;;;46.43;22.97;;;;;;;1.22;100.00;99989.44;4843398;29;20485;-70
2022/01/15 07:52:59;;;;;;;49.13;22.77;;;;;;;1.31;100.00;99983.47;4843484;29;20145;-67
2022/01/15 07:55:26;;;;;;;46.03;23.00;;;;;;;1.18;100.00;99985.34;4842148;29;20329;-66
2022/01/15 07:57:52;;;;;;;48.47;23.83;;;;;;;1.13;100.00;99990.13;4843183;29;20280;-66
2022/01/15 08:00:18;;;;;;;48.07;23.20;;;;;;;1.20;100.00;99991.34;4843142;29;20273;-66
2022/01/15 08:02:44;;;;;;;49.83;23.73;;;;;;;1.09;100.00;99989.53;4843785;29;20038;-64
2022/01/15 08:05:11;;;;;;;53.73;27.50;;;;;;;1.08;100.00;99987.00;4844291;29;20281;-70
2022/01/15 08:07:38;;;;;;;48.40;23.77;;;;;;;1.11;100.00;99989.41;4843034;29;20268;-66
2022/01/15 08:10:06;;;;;;;48.80;24.37;;;;;;;1.32;100.00;99993.03;4841776;29;20740;-66
2022/01/15 08:12:32;;;;;;;49.10;23.97;;;;;;;1.47;100.00;99988.41;4842915;29;20369;-66
2022/01/15 08:14:58;;;;;;;47.10;22.33;;;;;;;1.49;100.00;99994.41;4842911;29;20301;-66
2022/01/15 08:17:23;;;;;;;50.43;22.87;;;;;;;1.52;100.00;99985.41;4843051;29;20265;-68
2022/01/15 08:19:49;;;;;;;49.77;24.57;;;;;;;1.54;100.00;99996.66;4842881;29;20505;-67
2022/01/15 08:22:14;;;;;;;52.60;24.33;;;;;;;1.67;100.00;99994.75;4842812;29;20045;-66
2022/01/15 08:24:40;;;;;;;49.13;22.87;;;;;;;1.51;100.00;100003.00;4842584;29;20041;-67
2022/01/15 08:27:06;;;;;;;50.87;24.33;;;;;;;1.58;100.00;100006.84;4838471;29;20041;-68
2022/01/15 08:29:31;;;;;;;52.43;24.43;;;;;;;1.78;100.00;100002.66;4842361;29;20133;-67
2022/01/15 08:31:57;;;;;;;52.13;25.60;;;;;;;1.75;100.00;99998.47;4842655;29;20037;-66
2022/01/15 08:34:22;;;;;;;57.27;26.77;;;;;;;1.75;100.00;99995.00;4840045;29;20086;-67
2022/01/15 08:36:49;;;;;;;59.13;27.40;;;;;;;1.93;100.00;99984.81;4842237;29;20473;-67
2022/01/15 08:39:15;;;;;;;62.67;30.03;;;;;;;1.82;100.00;99988.31;4842578;29;20094;-67
2022/01/15 08:41:47;;;;;;;65.07;26.97;;;;;;;1.88;100.00;99987.81;4842297;29;20277;-66
2022/01/15 08:44:15;;;;;;;55.15;25.33;;;;;;;1.82;100.00;99998.84;4842372;29;20077;-67
2022/01/15 08:46:40;;;;;;;62.57;29.03;;;;;;;1.93;100.00;99992.72;4842251;29;20034;-67
2022/01/15 08:49:06;;;;;;;50.83;24.33;;;;;;;1.95;100.00;99994.28;4842310;29;20280;-67
2022/01/15 08:51:32;;;;;;;50.87;24.60;;;;;;;1.79;100.00;99989.38;4842353;29;20384;-68
2022/01/15 08:53:57;;;;;;;46.47;22.23;;;;;;;1.98;100.00;99993.19;4842406;29;20424;-67
2022/01/15 08:56:23;;;;;;;48.50;23.80;;;;;;;2.05;100.00;99995.25;4842286;29;20033;-68
2022/01/15 08:58:48;;;;;;;49.10;24.77;;;;;;;1.70;100.00;99997.16;4842371;29;20038;-67
2022/01/15 09:01:15;;;;;;;44.40;23.00;;;;;;;1.71;100.00;99996.22;4842115;29;20034;-68
2022/01/15 09:03:42;;;;;;;51.70;25.13;;;;;;;1.95;100.00;99996.09;4842153;29;20109;-69
2022/01/15 09:06:08;;;;;;;50.83;23.93;;;;;;;2.20;100.00;99995.78;4841895;29;20374;-68
2022/01/15 09:08:33;;;;;;;54.57;25.37;;;;;;;2.35;100.00;99996.38;4841946;29;20371;-68
2022/01/15 09:10:59;;;;;;;48.07;24.47;;;;;;;2.44;100.00;99993.84;4841955;29;20384;-67
2022/01/15 09:13:24;;;;;;;47.70;24.63;;;;;;;2.55;100.00;99988.53;4841902;29;20038;-67
2022/01/15 09:15:50;;;;;;;47.13;24.60;;;;;;;2.72;100.00;99991.59;4841754;29;20045;-67
2022/01/15 09:18:17;;;;;;;48.27;24.87;;;;;;;2.73;100.00;99988.84;4841569;29;20049;-67
2022/01/15 09:20:43;;;;;;;48.80;24.70;;;;;;;2.76;100.00;99985.97;4841819;29;20053;-66
2022/01/15 09:23:09;;;;;;;49.87;25.53;;;;;;;2.92;100.00;99983.72;4841540;29;20320;-65
2022/01/15 09:25:35;;;;;;;46.87;24.80;;;;;;;3.05;100.00;99988.81;4841640;29;20772;-64
2022/01/15 09:30:45;;;;;;;47.53;23.43;;;;;;;2.94;100.00;99977.47;4841626;29;20036;-65
2022/01/15 09:33:10;;;;;;;47.47;23.93;;;;;;;2.94;100.00;99978.31;4841377;29;20265;-65
2022/01/15 09:35:37;;;;;;;47.37;25.20;;;;;;;3.11;100.00;99972.47;4841459;29;20025;-65
2022/01/15 09:38:03;;;;;;;50.23;24.77;;;;;;;3.08;100.00;99969.25;4840031;29;20029;-65
2022/01/15 09:40:28;;;;;;;50.57;25.37;;;;;;;3.09;100.00;99971.75;4841402;29;20756;-65
2022/01/15 09:42:55;;;;;;;50.73;25.57;;;;;;;3.22;100.00;99969.75;4841404;29;20030;-65
2022/01/15 09:45:22;;;;;;;49.87;26.10;;;;;;;3.48;100.00;99969.31;4840590;29;20364;-65
2022/01/15 09:47:56;;;;;;;48.17;25.47;;;;;;;3.63;100.00;99968.03;4841148;29;20277;-65
2022/01/15 09:50:23;;;;;;;49.33;25.27;;;;;;;3.68;100.00;99962.34;4841362;29;20597;-64
2022/01/15 09:52:49;;;;;;;62.63;30.20;;;;;;;3.71;100.00;99962.06;4840083;29;20272;-65
2022/01/15 09:55:15;;;;;;;46.73;24.73;;;;;;;3.80;100.00;99964.78;4840360;29;20280;-65
2022/01/15 09:57:41;;;;;;;49.47;25.10;;;;;;;3.97;100.00;99958.84;4840934;29;20273;-65
2022/01/15 10:00:14;;;;;;;45.80;24.53;;;;;;;4.35;100.00;99960.75;4841126;29;20272;-65
2022/01/15 10:02:40;;;;;;;50.40;25.95;;;;;;;4.62;100.00;99954.78;4841133;29;20061;-65
2022/01/15 10:05:07;;;;;;;46.80;25.10;;;;;;;4.62;100.00;99953.94;4840937;29;20037;-66
2022/01/15 10:07:32;;;;;;;50.07;25.63;;;;;;;4.46;100.00;99941.25;4841101;29;20274;-65
2022/01/15 10:10:16;;;;;;;50.13;25.77;;;;;;;4.25;100.00;99951.13;4841070;29;20766;-65
2022/01/15 10:12:43;;;;;;;51.17;25.05;;;;;;;4.26;100.00;99947.50;4839661;29;20044;-67
2022/01/15 10:15:11;;;;;;;46.10;24.80;;;;;;;4.58;100.00;99945.44;4840776;29;20045;-65
2022/01/15 10:17:38;;;;;;;45.63;24.73;;;;;;;4.43;100.00;99945.97;4840734;29;20762;-64
2022/01/15 10:20:10;;;;;;;43.80;24.13;;;;;;;4.26;100.00;99948.34;4840607;29;20313;-66
2022/01/15 10:22:43;;;;;;;51.13;25.70;;;;;;;4.36;100.00;99943.06;4840729;29;20454;-66
2022/01/15 10:25:19;;;;;;;43.83;24.52;;;;;;;4.38;100.00;99941.13;4839574;29;20282;-68
2022/01/15 10:27:55;;;;;;;48.63;25.20;;;;;;;4.42;100.00;99936.38;4841137;29;20065;-67
2022/01/15 10:30:26;;;;;;;49.57;25.93;;;;;;;4.40;100.00;99933.03;4840657;29;20269;-67
2022/01/15 10:32:53;;;;;;;47.70;24.67;;;;;;;4.33;100.00;99936.22;4840673;29;20625;-63
2022/01/15 10:35:19;;;;;;;48.53;25.60;;;;;;;4.71;100.00;99932.78;4840606;29;20289;-66
2022/01/15 10:37:54;;;;;;;47.03;25.03;;;;;;;4.75;100.00;99933.31;4840533;29;20304;-65
2022/01/15 10:40:23;;;;;;;47.47;25.70;;;;;;;4.95;100.00;99935.00;4840686;29;20034;-66
2022/01/15 10:42:59;;;;;;;43.97;22.60;;;;;;;4.95;100.00;99926.22;4840828;29;20296;-67
2022/01/15 10:45:29;;;;;;;41.50;22.20;;;;;;;5.05;100.00;99921.72;4840536;29;20288;-66
2022/01/15 10:47:57;;;;;;;40.83;21.93;;;;;;;5.30;100.00;99923.78;4840453;29;20344;-66
2022/01/15 10:50:28;;;;;;;44.57;23.20;;;;;;;5.29;100.00;99922.09;4840677;29;20276;-66
2022/01/15 10:52:56;;;;;;;40.47;20.63;;;;;;;5.43;100.00;99913.66;4840379;29;20277;-66
2022/01/15 10:55:30;;;;;;;40.83;22.50;;;;;;;5.57;100.00;99920.31;4840452;29;20636;-66
2022/01/15 10:58:01;;;;;;;37.77;20.87;;;;;;;5.74;100.00;99911.63;4843414;29;20748;-67
2022/01/15 11:00:41;;;;;;;41.37;21.00;;;;;;;5.69;100.00;99907.72;4844485;29;20330;-67
2022/01/15 11:03:13;;;;;;;38.20;20.80;;;;;;;5.69;100.00;99894.47;4844269;29;20264;-68
2022/01/15 11:05:40;;;;;;;38.37;21.37;;;;;;;5.94;100.00;99890.31;4844051;29;20297;-67
2022/01/15 11:08:13;;;;;;;38.07;20.83;;;;;;;5.90;100.00;99883.63;4843939;29;20269;-67
2022/01/15 11:10:47;;;;;;;39.42;19.30;;;;;;;5.25;100.00;99877.47;4844138;29;20317;-67
2022/01/15 11:13:15;;;;;;;37.92;19.83;;;;;;;6.11;100.00;99871.78;4844079;29;20488;-66
2022/01/15 11:15:43;;;;;;;40.00;21.10;;;;;;;6.15;100.00;99867.81;4844277;29;20484;-66
2022/01/15 11:18:21;;;;;;;37.77;21.87;;;;;;;6.39;100.00;99866.41;4843810;29;20292;-65
2022/01/15 11:20:53;;;;;;;37.27;20.40;;;;;;;6.95;100.00;99860.72;4843906;29;20372;-67
2022/01/15 11:23:21;;;;;;;35.37;20.23;;;;;;;8.05;100.00;99846.59;4842639;29;20342;-66
2022/01/15 11:25:48;;;;;;;31.80;17.60;;;;;;;7.20;100.00;99849.25;4843943;29;20452;-66
2022/01/15 11:28:14;;;;;;;30.10;16.63;;;;;;;6.92;100.00;99845.09;4843923;29;20068;-65
2022/01/15 11:30:41;;;;;;;29.10;15.93;;;;;;;6.64;100.00;99851.50;4843805;29;20053;-66
2022/01/15 11:33:07;;;;;;;26.67;14.50;;;;;;;6.32;100.00;99852.06;4842493;29;20029;-65
2022/01/15 11:35:47;;;;;;;32.03;17.20;;;;;;;6.27;100.00;99843.72;4843682;29;20098;-65
2022/01/15 11:38:39;;;;;;;33.87;18.40;;;;;;;6.08;100.00;99842.06;4843528;29;20029;-65
2022/01/15 11:41:06;;;;;;;48.27;26.63;;;;;;;5.72;100.00;99841.97;4843472;29;20403;-65